Time;durP1;ratioP1;P1;durP2;ratioP2;P2;SDS_P1;SDS_P2;PMS_P1;PMS_P2;Temp;Humidity;BMP_temperature;BMP_pressure;BME280_temperature;BME280_humidity;BME280_pressure;Samples;Min_cycle;Max_cycle;Signal;HPM_P1;HPM_P2
2022/01/03 00:01:44;;;;;;;22.08;3.83;;;;;;;11.65;68.77;100960.16;3596932;39;20293;-65
2022/01/03 00:04:11;;;;;;;22.00;4.05;;;;;;;11.62;69.20;100966.59;3595117;39;20050;-63
2022/01/03 00:06:40;;;;;;;20.92;3.83;;;;;;;11.59;68.74;100973.03;3594521;39;20386;-66
2022/01/03 00:09:08;;;;;;;22.35;3.70;;;;;;;11.59;68.98;100974.88;3596970;39;20055;-65
2022/01/03 00:11:35;;;;;;;22.55;4.50;;;;;;;11.55;69.00;100971.53;3596912;39;20111;-66
2022/01/03 00:14:02;;;;;;;16.55;3.53;;;;;;;11.59;68.08;100980.25;3595761;39;20052;-64
2022/01/03 00:16:30;;;;;;;25.40;4.18;;;;;;;11.58;68.71;100971.31;3595438;39;20054;-64
2022/01/03 00:18:56;;;;;;;20.70;4.78;;;;;;;11.61;68.58;100983.72;3585546;40;20047;-65
2022/01/03 00:21:43;;;;;;;20.00;4.03;;;;;;;11.65;68.48;100990.63;3595387;39;20052;-66
2022/01/03 00:24:11;;;;;;;21.98;3.92;;;;;;;11.62;68.46;100982.75;3595422;39;20117;-65
2022/01/03 00:26:39;;;;;;;18.90;4.22;;;;;;;11.66;67.74;100983.44;3598060;39;20463;-65
2022/01/03 00:29:21;;;;;;;17.20;3.92;;;;;;;11.68;67.85;100992.28;3596674;39;20051;-65
2022/01/03 00:31:47;;;;;;;18.75;4.03;;;;;;;11.63;67.97;100984.47;3596602;39;20076;-65
2022/01/03 00:34:14;;;;;;;24.00;4.40;;;;;;;11.66;68.28;100989.66;3600103;39;20058;-65
2022/01/03 00:36:44;;;;;;;20.98;3.95;;;;;;;11.71;67.68;101001.03;3595763;39;20060;-65
2022/01/03 00:39:10;;;;;;;18.08;3.78;;;;;;;11.58;67.72;100973.16;3598640;39;20091;-65
2022/01/03 00:41:40;;;;;;;22.48;4.20;;;;;;;11.71;67.93;100989.41;3595850;39;20062;-65
2022/01/03 00:44:07;;;;;;;17.42;4.00;;;;;;;11.72;67.94;100978.50;3597488;39;20052;-64
2022/01/03 00:46:34;;;;;;;23.13;4.45;;;;;;;11.71;67.66;100976.78;3594184;39;20055;-64
2022/01/03 00:49:02;;;;;;;20.27;4.00;;;;;;;11.69;67.66;100980.53;3599421;39;20400;-64
2022/01/03 00:51:28;;;;;;;20.63;4.50;;;;;;;11.68;67.05;100971.59;3596440;39;20059;-65
2022/01/03 00:53:54;;;;;;;19.63;4.47;;;;;;;11.67;67.32;100986.03;3597375;39;20091;-64
2022/01/03 00:56:27;;;;;;;19.23;4.35;;;;;;;11.70;67.13;100985.81;3597287;39;20057;-65
2022/01/03 00:59:04;;;;;;;20.58;4.35;;;;;;;11.73;66.40;100968.59;3597535;39;20052;-67
2022/01/03 01:01:51;;;;;;;16.63;4.32;;;;;;;11.78;66.79;100979.94;3597554;39;20059;-65
2022/01/03 01:04:21;;;;;;;17.30;3.58;;;;;;;11.71;66.59;100976.78;3596696;39;20048;-66
2022/01/03 01:06:54;;;;;;;20.80;4.18;;;;;;;11.59;67.04;100966.78;3595642;39;20066;-67
2022/01/03 01:09:22;;;;;;;;;;;;;;;11.75;67.11;100970.22;3597086;39;20055;-65
2022/01/03 01:11:53;;;;;;;19.25;3.92;;;;;;;11.75;66.64;100981.00;3593848;39;20557;-65
2022/01/03 01:14:21;;;;;;;18.63;3.88;;;;;;;11.76;66.79;100985.41;3596407;39;20059;-66
2022/01/03 01:16:48;;;;;;;20.42;4.35;;;;;;;11.76;67.14;100977.34;3593822;39;20100;-64
2022/01/03 01:19:14;;;;;;;28.67;4.88;;;;;;;11.69;67.35;100976.00;3596541;39;20084;-64
2022/01/03 01:21:41;;;;;;;24.58;4.22;;;;;;;11.72;67.32;100991.97;3595248;39;20051;-66
2022/01/03 01:24:07;;;;;;;23.38;4.63;;;;;;;11.72;67.15;100981.19;3597685;39;20101;-65
2022/01/03 01:29:16;;;;;;;;;;;;;;;11.71;68.23;100992.94;3597442;39;20113;-66
2022/01/03 01:31:51;;;;;;;19.23;4.10;;;;;;;11.66;67.65;101005.81;3597494;39;19944;-64
2022/01/03 01:34:26;;;;;;;21.55;4.50;;;;;;;11.66;67.38;101003.13;3598492;39;20396;-65
2022/01/03 01:36:57;;;;;;;22.05;4.53;;;;;;;11.60;67.47;101011.59;3587343;39;20117;-65
2022/01/03 01:39:26;;;;;;;20.60;5.13;;;;;;;11.61;67.99;101018.75;3596698;39;20431;-65
2022/01/03 01:42:04;;;;;;;18.98;4.22;;;;;;;11.59;68.03;101026.88;3600104;39;20055;-67
2022/01/03 01:44:35;;;;;;;21.80;4.32;;;;;;;11.57;68.08;101030.63;3597945;39;20063;-66
2022/01/03 01:47:06;;;;;;;23.60;4.43;;;;;;;11.55;68.14;101029.88;3596348;39;20341;-65
2022/01/03 01:49:44;;;;;;;22.10;4.45;;;;;;;11.53;68.40;101018.34;3598381;39;20044;-66
2022/01/03 01:52:18;;;;;;;20.63;4.68;;;;;;;11.52;68.08;101022.00;3599946;39;20103;-65
2022/01/03 01:54:57;;;;;;;21.30;3.75;;;;;;;11.44;68.46;101013.53;3596910;39;20098;-65
2022/01/03 01:57:58;;;;;;;19.23;3.90;;;;;;;11.39;68.36;101020.06;3600672;39;20398;-65
2022/01/03 02:00:26;;;;;;;18.85;4.22;;;;;;;11.35;68.52;101017.66;3597023;39;20096;-65
2022/01/03 02:03:12;;;;;;;18.63;3.67;;;;;;;11.31;68.59;101026.88;3599522;39;20055;-65
2022/01/03 02:05:40;;;;;;;21.05;3.83;;;;;;;11.27;69.24;101031.59;3599163;39;20350;-66
2022/01/03 02:08:37;;;;;;;19.08;3.67;;;;;;;11.24;69.20;101025.53;3597632;39;20404;-66
2022/01/03 02:11:29;;;;;;;24.23;4.95;;;;;;;11.18;69.14;101032.16;3598198;39;20056;-64
2022/01/03 02:13:56;;;;;;;20.83;4.32;;;;;;;11.00;69.56;101003.69;3597448;39;20062;-65
2022/01/03 02:16:24;;;;;;;20.33;4.07;;;;;;;11.13;69.89;101034.25;3596259;39;20055;-66
2022/01/03 02:18:49;;;;;;;19.52;3.80;;;;;;;11.18;69.87;101032.16;3595489;39;20368;-66
2022/01/03 02:21:17;;;;;;;27.83;4.50;;;;;;;11.10;69.46;101037.13;3597409;39;20059;-66
2022/01/03 02:23:43;;;;;;;24.10;3.85;;;;;;;11.05;70.24;101021.28;3595770;39;20115;-65
2022/01/03 02:26:08;;;;;;;22.23;3.95;;;;;;;11.05;70.37;101031.16;3598410;39;20047;-66
2022/01/03 02:28:34;;;;;;;23.92;4.00;;;;;;;11.00;70.10;101035.94;3596566;39;20300;-65
2022/01/03 02:31:00;;;;;;;21.30;3.85;;;;;;;10.96;69.90;101032.59;3597242;39;20064;-64
2022/01/03 02:33:25;;;;;;;22.98;3.85;;;;;;;10.91;70.64;101035.56;3635039;22;20052;-62
2022/01/03 02:35:51;;;;;;;25.45;3.97;;;;;;;10.89;70.75;101031.22;3595937;39;20056;-62
2022/01/03 02:38:18;;;;;;;23.38;3.95;;;;;;;10.86;70.49;101034.97;3599021;39;20095;-63
2022/01/03 02:40:44;;;;;;;15.25;4.07;;;;;;;10.85;70.44;101029.69;3595580;39;20055;-62
2022/01/03 02:43:10;;;;;;;25.50;4.32;;;;;;;10.64;70.63;101004.94;3595757;39;20043;-63
2022/01/03 02:45:36;;;;;;;23.88;3.97;;;;;;;10.85;70.25;101046.69;3598874;39;20083;-63
2022/01/03 02:48:11;;;;;;;22.70;4.20;;;;;;;10.85;70.97;101041.31;3595970;39;20116;-62
2022/01/03 02:50:37;;;;;;;18.58;4.00;;;;;;;10.86;70.66;101036.78;3597919;39;20047;-62
2022/01/03 02:53:03;;;;;;;26.75;4.85;;;;;;;10.88;71.05;101029.50;3601507;39;20055;-62
2022/01/03 02:55:31;;;;;;;20.08;3.70;;;;;;;10.91;70.20;101032.88;3601156;39;20396;-63
2022/01/03 02:58:06;;;;;;;23.05;4.55;;;;;;;10.92;70.21;101037.28;3597091;39;20047;-62
2022/01/03 03:00:36;;;;;;;27.35;4.63;;;;;;;10.90;70.41;101032.94;3595063;39;20538;-62
2022/01/03 03:03:03;;;;;;;22.75;4.13;;;;;;;10.90;70.53;101055.31;3602774;39;20051;-62
2022/01/03 03:05:29;;;;;;;24.17;3.90;;;;;;;10.81;70.43;101034.34;3600059;39;20063;-63
2022/01/03 03:07:56;;;;;;;24.13;4.78;;;;;;;10.87;70.07;101044.75;3601884;39;20071;-62
2022/01/03 03:10:24;;;;;;;20.55;3.78;;;;;;;10.88;70.22;101033.06;3599789;39;20047;-62
2022/01/03 03:12:50;;;;;;;18.45;3.75;;;;;;;10.85;70.59;101044.00;3598508;39;20059;-62
2022/01/03 03:15:17;;;;;;;21.55;4.13;;;;;;;10.81;71.17;101039.75;3598606;39;20043;-62
2022/01/03 03:17:45;;;;;;;30.23;5.13;;;;;;;10.70;71.00;101015.31;3595228;39;20476;-62
2022/01/03 03:20:15;;;;;;;27.50;4.15;;;;;;;10.85;70.69;101035.94;3598779;39;20054;-62
2022/01/03 03:22:41;;;;;;;23.65;4.85;;;;;;;10.86;70.74;101032.28;3602344;39;20426;-62
2022/01/03 03:25:17;;;;;;;25.75;4.68;;;;;;;10.92;70.69;101050.72;3596912;39;20060;-62
2022/01/03 03:27:47;;;;;;;21.55;4.07;;;;;;;10.93;70.53;101033.63;3601187;39;20443;-62
2022/01/03 03:30:25;;;;;;;20.77;3.63;;;;;;;10.98;70.60;101051.34;3601510;39;20393;-62
2022/01/03 03:32:59;;;;;;;25.10;4.40;;;;;;;11.01;70.82;101040.41;3601249;39;20055;-62
2022/01/03 03:35:25;;;;;;;26.70;3.85;;;;;;;11.05;70.95;101036.56;3598718;39;20471;-62
2022/01/03 03:37:50;;;;;;;18.73;3.47;;;;;;;11.08;70.83;101044.44;3600501;39;20086;-61
2022/01/03 03:40:17;;;;;;;25.65;3.90;;;;;;;11.07;70.74;101026.56;3599489;39;20051;-62
2022/01/03 03:42:44;;;;;;;26.35;4.32;;;;;;;11.01;70.61;101026.94;3595327;39;20359;-62
2022/01/03 03:45:12;;;;;;;27.35;4.75;;;;;;;11.12;70.38;101037.91;3594913;39;20043;-62
2022/01/03 03:47:37;;;;;;;25.88;4.50;;;;;;;11.11;70.27;101030.81;3598171;39;20087;-62
2022/01/03 03:50:05;;;;;;;21.67;3.92;;;;;;;11.13;70.66;101036.94;3602090;39;20390;-61
2022/01/03 03:52:31;;;;;;;20.67;3.88;;;;;;;11.11;70.62;101044.25;3591084;39;20125;-62
2022/01/03 03:54:57;;;;;;;21.38;3.88;;;;;;;11.11;69.97;101030.81;3592648;39;20043;-62
2022/01/03 03:57:22;;;;;;;24.27;5.43;;;;;;;11.08;70.65;101031.00;3600549;39;20359;-62
2022/01/03 03:59:48;;;;;;;25.08;4.50;;;;;;;11.02;70.29;101020.59;3596350;39;20107;-62
2022/01/03 04:02:14;;;;;;;20.92;4.05;;;;;;;11.06;70.47;101025.69;3599228;39;20075;-62
2022/01/03 04:04:39;;;;;;;22.38;4.15;;;;;;;11.06;70.52;101028.38;3591970;39;20103;-62
2022/01/03 04:07:05;;;;;;;25.88;4.70;;;;;;;11.07;70.05;101026.56;3601253;39;20109;-62
2022/01/03 04:09:31;;;;;;;26.55;4.22;;;;;;;11.12;70.84;101037.91;3600893;39;20055;-63
2022/01/03 04:11:58;;;;;;;22.83;4.18;;;;;;;11.14;70.57;101011.78;3602312;39;20095;-63
2022/01/03 04:14:23;;;;;;;21.90;3.92;;;;;;;11.13;70.15;101023.47;3600304;39;20293;-62
2022/01/03 04:16:49;;;;;;;25.88;4.50;;;;;;;11.20;70.18;101016.78;3598538;39;20065;-62
2022/01/03 04:19:14;;;;;;;22.77;3.90;;;;;;;10.93;69.79;100969.06;3598912;39;20791;-62
2022/01/03 04:21:41;;;;;;;26.27;4.53;;;;;;;10.88;70.30;100964.97;3597785;39;20135;-62
2022/01/03 04:24:10;;;;;;;17.73;3.70;;;;;;;11.22;70.15;101012.16;3593116;39;20051;-62
2022/01/03 04:26:38;;;;;;;23.98;4.60;;;;;;;11.19;69.73;101006.97;3600518;39;20068;-61
2022/01/03 04:29:06;;;;;;;22.83;4.40;;;;;;;11.28;69.44;101001.03;3602495;39;20055;-62
2022/01/03 04:31:33;;;;;;;24.25;4.55;;;;;;;11.25;69.89;100992.28;3598850;39;20083;-62
2022/01/03 04:34:00;;;;;;;24.30;4.00;;;;;;;11.27;69.73;100999.31;3597491;39;20059;-62
2022/01/03 04:36:27;;;;;;;23.38;4.72;;;;;;;11.21;69.95;100985.38;3601183;39;20278;-62
2022/01/03 04:38:52;;;;;;;21.73;4.15;;;;;;;11.31;69.82;101002.66;3595606;39;20081;-62
2022/01/03 04:41:19;;;;;;;24.35;3.80;;;;;;;11.33;69.91;100992.69;3594370;39;20582;-63
2022/01/03 04:43:44;;;;;;;25.67;4.40;;;;;;;11.29;69.60;101002.78;3602111;39;20053;-62
2022/01/03 04:46:12;;;;;;;20.48;4.00;;;;;;;11.30;70.00;100999.09;3601382;39;20087;-62
2022/01/03 04:48:41;;;;;;;25.33;4.15;;;;;;;11.36;69.67;101001.41;3594977;39;20153;-62
2022/01/03 04:51:08;;;;;;;22.67;3.72;;;;;;;11.37;69.93;100992.38;3603083;39;20043;-63
2022/01/03 04:53:37;;;;;;;24.80;4.25;;;;;;;11.37;69.50;100988.81;3593821;39;20387;-62
2022/01/03 04:56:03;;;;;;;26.98;4.75;;;;;;;11.35;69.69;100991.63;3603052;39;20149;-62
2022/01/03 04:58:29;;;;;;;24.60;4.10;;;;;;;11.31;69.84;100984.69;3600928;39;20052;-63
2022/01/03 05:00:55;;;;;;;19.65;3.95;;;;;;;11.32;69.65;100983.75;3590205;40;20074;-62
2022/01/03 05:03:20;;;;;;;26.95;4.93;;;;;;;11.34;69.76;100997.94;3597526;39;20057;-62
2022/01/03 05:05:46;;;;;;;22.77;4.20;;;;;;;11.38;69.66;100987.84;3599449;39;20065;-62
2022/01/03 05:08:12;;;;;;;21.60;4.38;;;;;;;11.34;69.84;100989.88;3604836;39;20366;-62
2022/01/03 05:10:38;;;;;;;22.33;4.05;;;;;;;11.32;69.79;100986.44;3597182;39;20070;-62
2022/01/03 05:13:03;;;;;;;23.10;4.68;;;;;;;11.35;69.69;100986.25;3600187;39;20059;-63
2022/01/03 05:15:29;;;;;;;26.27;4.47;;;;;;;11.35;69.96;100988.94;3598964;39;20059;-62
2022/01/03 05:17:54;;;;;;;34.28;11.63;;;;;;;11.36;69.59;100982.59;3598747;39;20466;-62
2022/01/03 05:20:20;;;;;;;27.75;4.60;;;;;;;11.34;69.41;100979.09;3597716;39;20101;-63
2022/01/03 05:22:46;;;;;;;26.98;5.15;;;;;;;11.34;69.40;100962.09;3601816;39;20055;-62
2022/01/03 05:25:12;;;;;;;26.88;4.65;;;;;;;11.42;69.79;100993.91;3604655;39;20043;-63
2022/01/03 05:27:39;;;;;;;22.35;4.15;;;;;;;11.41;69.87;100976.03;3597692;39;20379;-63
2022/01/03 05:30:07;;;;;;;24.33;4.22;;;;;;;11.32;69.84;100980.16;3600272;39;20047;-62
2022/01/03 05:32:33;;;;;;;22.73;4.18;;;;;;;11.34;69.88;100976.41;3596071;39;20063;-63
2022/01/03 05:34:58;;;;;;;27.83;4.47;;;;;;;11.18;69.96;100945.19;3601687;39;20059;-62
2022/01/03 05:37:24;;;;;;;25.08;5.13;;;;;;;11.34;69.89;100979.09;3594289;39;20048;-63
2022/01/03 05:39:50;;;;;;;22.85;4.30;;;;;;;11.12;69.69;100922.22;3600858;39;20104;-63
2022/01/03 05:42:16;;;;;;;23.67;4.68;;;;;;;11.35;69.62;100962.03;3598724;39;20572;-62
2022/01/03 05:44:41;;;;;;;26.70;4.07;;;;;;;11.35;69.41;100967.41;3598739;39;20048;-62
2022/01/03 05:47:07;;;;;;;24.85;4.75;;;;;;;11.27;69.96;100950.84;3598064;39;20109;-62
2022/01/03 05:49:33;;;;;;;20.83;3.70;;;;;;;11.31;69.80;100952.38;3593982;39;20056;-63
2022/01/03 05:51:59;;;;;;;20.50;3.70;;;;;;;11.28;69.15;100940.97;3594971;39;20071;-63
2022/01/03 05:54:25;;;;;;;21.55;3.88;;;;;;;11.31;69.25;100951.53;3601849;39;20074;-63
2022/01/03 05:56:50;;;;;;;22.10;4.28;;;;;;;11.34;69.57;100954.88;3596055;39;20048;-63
2022/01/03 05:59:16;;;;;;;20.73;4.13;;;;;;;11.26;69.31;100946.44;3600083;39;20316;-63
2022/01/03 06:01:42;;;;;;;22.10;3.97;;;;;;;11.23;70.18;100960.09;3595185;39;20059;-63
2022/01/03 06:04:38;;;;;;;19.63;3.30;;;;;;;11.23;69.71;100953.84;3597925;39;20047;-63
2022/01/03 06:07:08;;;;;;;25.27;4.07;;;;;;;11.21;69.78;100951.25;3598114;39;20277;-63
2022/01/03 06:09:34;;;;;;;23.42;4.22;;;;;;;11.21;69.99;100962.00;3596234;39;20060;-63
2022/01/03 06:12:00;;;;;;;15.25;3.13;;;;;;;11.17;70.75;100955.09;3590537;39;20401;-63
2022/01/03 06:14:26;;;;;;;22.63;3.80;;;;;;;11.14;70.58;100947.22;3593855;39;20287;-63
2022/01/03 06:16:53;;;;;;;19.00;3.50;;;;;;;11.07;71.34;100938.66;3592017;39;20055;-63
2022/01/03 06:19:19;;;;;;;27.08;3.85;;;;;;;11.08;71.52;100944.91;3592271;39;20113;-63
2022/01/03 06:21:46;;;;;;;21.48;4.07;;;;;;;11.10;71.14;100937.56;3594210;39;20280;-63
2022/01/03 06:24:14;;;;;;;18.27;3.33;;;;;;;11.09;71.05;100936.72;3596520;39;20047;-65
2022/01/03 06:26:44;;;;;;;20.83;3.38;;;;;;;10.98;71.20;100923.09;3589234;39;20060;-62
2022/01/03 06:29:14;;;;;;;19.85;3.40;;;;;;;11.06;71.31;100946.81;3593701;39;20063;-63
2022/01/03 06:31:42;;;;;;;23.70;4.03;;;;;;;10.77;71.47;100898.38;3591540;39;20040;-63
2022/01/03 06:34:08;;;;;;;24.23;4.40;;;;;;;11.04;71.32;100943.38;3592060;39;20059;-63
2022/01/03 06:36:34;;;;;;;19.27;3.83;;;;;;;11.00;71.74;100933.72;3592170;39;20050;-64
2022/01/03 06:39:00;;;;;;;23.70;3.95;;;;;;;11.01;71.67;100935.50;3594383;39;20047;-63
2022/01/03 06:41:26;;;;;;;20.20;3.67;;;;;;;10.92;73.28;100944.97;3590844;39;20117;-64
2022/01/03 06:43:53;;;;;;;21.33;3.60;;;;;;;10.86;74.76;100964.19;3591009;39;20121;-63
2022/01/03 06:46:19;;;;;;;27.90;4.10;;;;;;;10.76;75.48;100950.44;3580124;39;20051;-63
2022/01/03 06:48:46;;;;;;;18.02;3.10;;;;;;;10.71;76.71;100955.22;3594884;39;20334;-63
2022/01/03 06:51:14;;;;;;;18.23;3.65;;;;;;;10.60;76.97;100952.31;3593889;39;20087;-63
2022/01/03 06:53:40;;;;;;;19.00;3.50;;;;;;;10.50;77.87;100932.28;3592402;39;20060;-63
2022/01/03 06:56:06;;;;;;;24.08;3.83;;;;;;;10.48;77.71;100934.22;3594044;39;20059;-63
2022/01/03 06:58:32;;;;;;;20.38;3.58;;;;;;;10.47;77.78;100943.25;3590161;39;20048;-63
2022/01/03 07:00:58;;;;;;;18.83;3.85;;;;;;;10.42;78.67;100946.22;3590919;39;20287;-63
2022/01/03 07:03:24;;;;;;;19.42;3.25;;;;;;;10.43;78.20;100937.19;3595052;39;20054;-63
2022/01/03 07:05:50;;;;;;;21.30;3.83;;;;;;;10.41;78.08;100941.78;3592749;39;20059;-63
2022/01/03 07:08:16;;;;;;;21.77;3.85;;;;;;;10.21;77.88;100911.56;3592614;39;20047;-63
2022/01/03 07:10:41;;;;;;;19.13;4.10;;;;;;;10.33;78.39;100936.00;3594658;39;20068;-63
2022/01/03 07:13:07;;;;;;;18.45;3.80;;;;;;;10.33;77.70;100927.94;3589577;39;20383;-63
2022/01/03 07:21:01;;;;;;;16.25;3.30;;;;;;;10.34;78.12;100927.88;3594172;39;20054;-63
2022/01/03 07:23:27;;;;;;;17.92;3.33;;;;;;;10.34;77.76;100933.22;3583282;40;20349;-63
2022/01/03 07:25:53;;;;;;;21.80;4.10;;;;;;;10.34;77.44;100938.59;3579747;39;20063;-63
2022/01/03 07:28:18;;;;;;;20.27;4.65;;;;;;;10.31;77.66;100933.41;3588793;39;20064;-63
2022/01/03 07:30:45;;;;;;;21.00;3.50;;;;;;;10.34;77.16;100933.22;3591414;39;20407;-63
2022/01/03 07:33:12;;;;;;;22.80;3.60;;;;;;;10.33;76.78;100950.28;3590120;39;20062;-63
2022/01/03 07:35:37;;;;;;;23.05;4.13;;;;;;;10.34;76.69;100946.66;3590887;39;20137;-62
2022/01/03 07:38:04;;;;;;;15.85;3.13;;;;;;;10.34;76.57;100949.34;3596500;39;20393;-63
2022/01/03 07:40:31;;;;;;;20.80;4.18;;;;;;;10.34;76.43;100949.34;3594887;39;20056;-63
2022/01/03 07:42:58;;;;;;;19.45;3.75;;;;;;;10.36;76.90;100941.19;3589319;39;20063;-63
2022/01/03 07:45:25;;;;;;;21.40;3.95;;;;;;;10.38;76.33;100948.22;3588164;39;20044;-63
2022/01/03 07:47:51;;;;;;;22.15;4.47;;;;;;;10.40;76.15;100940.94;3590456;39;20397;-63
2022/01/03 07:50:17;;;;;;;13.07;3.00;;;;;;;10.48;75.84;100939.59;3593687;39;20448;-63
2022/01/03 07:52:43;;;;;;;23.48;4.13;;;;;;;10.25;75.99;100901.50;3592192;39;20044;-63
2022/01/03 07:55:12;;;;;;;15.65;2.88;;;;;;;10.55;75.55;100957.09;3597899;39;20274;-63
2022/01/03 07:57:38;;;;;;;20.52;3.67;;;;;;;10.63;75.62;100962.88;3589481;39;20044;-62
2022/01/03 08:00:07;;;;;;;15.32;3.10;;;;;;;10.58;75.47;100967.66;3588378;39;20058;-63
2022/01/03 08:02:33;;;;;;;20.48;3.95;;;;;;;10.56;74.64;100954.31;3587980;39;20090;-62
2022/01/03 08:04:59;;;;;;;22.02;3.47;;;;;;;10.62;75.45;100947.69;3591280;39;20067;-62
2022/01/03 08:07:24;;;;;;;16.83;3.58;;;;;;;10.67;74.60;100941.09;3594878;39;20051;-63
2022/01/03 08:09:50;;;;;;;14.45;3.00;;;;;;;10.73;74.61;100955.13;3594723;39;20052;-65
2022/01/03 08:12:16;;;;;;;18.23;3.50;;;;;;;10.77;73.78;100940.53;3594036;39;20044;-63
2022/01/03 08:14:43;;;;;;;23.35;3.58;;;;;;;10.74;74.24;100956.84;3597798;39;20056;-64
2022/01/03 08:17:08;;;;;;;16.83;4.18;;;;;;;10.76;73.70;100955.81;3596570;39;20133;-66
2022/01/03 08:19:34;;;;;;;19.77;3.25;;;;;;;10.80;73.31;100959.16;3601544;39;20058;-66
2022/01/03 08:22:00;;;;;;;20.33;4.43;;;;;;;10.79;73.83;100955.63;3600048;39;20048;-65
2022/01/03 08:24:26;;;;;;;18.55;3.40;;;;;;;10.75;73.63;100959.47;3599256;39;20047;-65
2022/01/03 08:26:52;;;;;;;19.73;3.60;;;;;;;10.81;73.56;100950.13;3597918;39;20136;-65
2022/01/03 08:29:17;;;;;;;22.67;3.83;;;;;;;10.58;73.59;100905.84;3598666;39;20684;-65
2022/01/03 08:31:43;;;;;;;19.70;3.70;;;;;;;10.82;73.42;100949.19;3592644;39;20090;-64
2022/01/03 08:34:08;;;;;;;17.55;3.45;;;;;;;10.88;73.57;100943.44;3596140;39;20071;-65
2022/01/03 08:36:34;;;;;;;20.83;4.15;;;;;;;10.88;73.39;100935.38;3589903;39;20100;-65
2022/01/03 08:39:00;;;;;;;18.70;3.38;;;;;;;10.93;73.31;100930.56;3599030;39;20066;-65
2022/01/03 08:41:26;;;;;;;18.02;3.70;;;;;;;10.90;73.25;100942.38;3601209;39;20058;-65
2022/01/03 08:43:53;;;;;;;19.73;3.67;;;;;;;10.97;73.52;100939.31;3601627;39;20368;-64
2022/01/03 08:46:19;;;;;;;20.10;3.50;;;;;;;10.99;72.83;100929.31;3599095;39;20056;-65
2022/01/03 08:48:45;;;;;;;16.50;3.90;;;;;;;10.97;73.45;100931.25;3599827;39;20051;-65
2022/01/03 08:51:11;;;;;;;19.08;3.45;;;;;;;10.94;72.60;100943.03;3601753;39;20050;-62
2022/01/03 08:53:37;;;;;;;20.23;3.72;;;;;;;11.07;72.38;100954.81;3603045;39;20067;-62
2022/01/03 08:56:03;;;;;;;23.20;3.88;;;;;;;11.03;73.07;100952.38;3602412;39;20059;-65
2022/01/03 08:58:29;;;;;;;18.75;3.72;;;;;;;10.97;72.58;100942.00;3601365;39;20434;-65
2022/01/03 09:00:55;;;;;;;19.25;3.65;;;;;;;11.08;73.23;100955.66;3598906;39;20075;-65
2022/01/03 09:03:22;;;;;;;20.75;3.97;;;;;;;11.10;73.28;100969.88;3603511;39;20054;-65
2022/01/03 09:05:49;;;;;;;22.50;3.42;;;;;;;11.12;72.85;100978.72;3607122;39;20043;-65
2022/01/03 09:08:16;;;;;;;24.05;4.68;;;;;;;11.17;72.33;100960.47;3601666;39;20045;-65
2022/01/03 09:10:42;;;;;;;19.42;3.72;;;;;;;11.16;72.37;100942.56;3601212;39;20044;-65
2022/01/03 09:13:08;;;;;;;15.73;3.60;;;;;;;11.30;72.00;100950.66;3608100;39;20055;-65
2022/01/03 09:15:34;;;;;;;20.95;4.30;;;;;;;11.37;71.99;100952.00;3604215;39;20059;-65
2022/01/03 09:17:59;;;;;;;15.30;3.00;;;;;;;11.45;71.08;100948.84;3598728;39;20093;-65
2022/01/03 09:20:25;;;;;;;19.85;4.57;;;;;;;11.54;70.75;100947.38;3604386;39;20051;-65
2022/01/03 09:22:54;;;;;;;24.17;3.65;;;;;;;11.56;70.75;100945.47;3603640;39;20082;-65
2022/01/03 09:30:46;;;;;;;18.75;3.10;;;;;;;11.58;70.39;100938.16;3594813;39;20126;-65
2022/01/03 09:33:12;;;;;;;20.58;3.65;;;;;;;11.60;70.30;100941.59;3596547;39;20074;-65
2022/01/03 09:35:40;;;;;;;17.48;3.20;;;;;;;11.60;70.47;100930.81;3597014;39;20055;-65
2022/01/03 09:38:06;;;;;;;19.98;3.85;;;;;;;11.55;70.39;100908.75;3600644;39;20093;-65
2022/01/03 09:40:32;;;;;;;23.33;3.53;;;;;;;11.63;69.72;100925.25;3604442;39;20090;-65
2022/01/03 09:43:01;;;;;;;17.88;3.72;;;;;;;11.59;70.08;100921.03;3601047;39;20062;-65
2022/01/03 09:45:32;;;;;;;21.50;3.75;;;;;;;11.57;70.61;100921.09;3593223;39;20053;-65
2022/01/03 09:48:01;;;;;;;18.88;4.03;;;;;;;11.61;70.61;100932.56;3593757;39;20085;-65
2022/01/03 09:50:27;;;;;;;19.23;3.95;;;;;;;11.64;69.88;100927.00;3601469;39;20120;-65
2022/01/03 09:52:54;;;;;;;14.65;3.05;;;;;;;11.63;69.64;100917.16;3597238;39;20071;-65
2022/01/03 09:55:22;;;;;;;21.67;4.10;;;;;;;11.64;69.79;100932.38;3599653;39;20055;-65
2022/01/03 09:57:49;;;;;;;23.02;3.67;;;;;;;11.66;69.93;100927.75;3591204;39;20048;-64
2022/01/03 10:00:23;;;;;;;23.90;3.75;;;;;;;11.62;70.07;100918.13;3590736;40;20409;-65
2022/01/03 10:02:54;;;;;;;15.90;3.53;;;;;;;11.63;69.91;100930.63;3601489;39;20056;-65
2022/01/03 10:05:21;;;;;;;20.60;4.68;;;;;;;11.65;70.36;100926.03;3598443;39;20099;-65
2022/01/03 10:07:48;;;;;;;21.80;4.28;;;;;;;11.22;70.16;100841.78;3601442;39;20062;-65
2022/01/03 10:10:14;;;;;;;21.60;4.18;;;;;;;11.67;70.08;100920.50;3598990;39;20066;-65
2022/01/03 10:12:41;;;;;;;21.60;3.83;;;;;;;11.69;70.06;100919.47;3601096;39;20107;-65
2022/01/03 10:15:09;;;;;;;20.95;4.13;;;;;;;11.72;69.67;100913.03;3594268;39;20295;-65
2022/01/03 10:17:39;;;;;;;20.08;3.35;;;;;;;11.72;70.20;100913.88;3599693;39;20308;-64
2022/01/03 10:20:10;;;;;;;22.08;3.70;;;;;;;11.75;69.75;100918.19;3601053;39;20381;-64
2022/01/03 10:22:38;;;;;;;15.90;3.47;;;;;;;11.79;69.99;100920.59;3598516;39;20400;-64
2022/01/03 10:25:21;;;;;;;25.98;4.40;;;;;;;11.83;69.68;100927.53;3602728;39;20043;-65
2022/01/03 10:28:03;;;;;;;18.95;3.83;;;;;;;11.85;69.51;100925.59;3596842;39;20099;-64
2022/01/03 10:30:38;;;;;;;24.63;4.47;;;;;;;11.85;69.60;100920.22;3594439;39;20330;-65
2022/01/03 10:33:07;;;;;;;19.77;3.83;;;;;;;11.78;69.47;100902.72;3590541;39;20371;-64
2022/01/03 10:35:47;;;;;;;18.88;3.97;;;;;;;11.87;69.08;100912.06;3593721;39;20080;-65
2022/01/03 10:38:41;;;;;;;17.95;3.85;;;;;;;11.87;69.16;100912.06;3599058;39;20048;-65
2022/01/03 10:41:17;;;;;;;;;;;;;;;11.90;68.98;100900.22;3595665;39;20059;-64
2022/01/03 10:43:58;;;;;;;15.35;4.10;;;;;;;11.85;69.02;100893.28;3595433;39;20311;-65
2022/01/03 10:46:26;;;;;;;19.20;3.20;;;;;;;11.91;69.33;100899.25;3601144;39;20044;-65
2022/01/03 10:49:06;;;;;;;17.50;3.53;;;;;;;11.97;68.93;100893.44;3603743;39;20075;-64
2022/01/03 10:51:32;;;;;;;19.42;3.17;;;;;;;12.02;69.08;100891.28;3597619;39;20383;-64
2022/01/03 10:53:57;;;;;;;19.35;4.05;;;;;;;12.00;68.55;100872.56;3602735;39;20050;-64
2022/01/03 10:56:34;;;;;;;15.15;2.92;;;;;;;12.06;68.27;100871.28;3596698;39;20052;-64
2022/01/03 10:59:11;;;;;;;18.13;3.10;;;;;;;12.11;68.36;100873.66;3595183;39;20055;-64
2022/01/03 11:01:37;;;;;;;21.38;3.90;;;;;;;12.11;68.34;100866.44;3600555;39;20128;-64
2022/01/03 11:04:04;;;;;;;16.80;3.35;;;;;;;12.16;68.43;100867.00;3599114;39;20035;-65
2022/01/03 11:11:48;;;;;;;16.77;3.83;;;;;;;12.19;67.97;100844.38;3597388;39;20058;-63
2022/01/03 11:14:41;;;;;;;23.40;4.05;;;;;;;12.35;67.91;100844.19;3597095;39;20087;-64
2022/01/03 11:17:24;;;;;;;20.30;3.53;;;;;;;12.66;66.13;100837.50;3602169;39;20055;-64
2022/01/03 11:19:51;;;;;;;18.20;3.88;;;;;;;12.68;66.25;100840.94;3596399;39;20401;-64
2022/01/03 11:22:49;;;;;;;17.30;3.40;;;;;;;12.65;65.93;100833.94;3596771;39;20057;-64
2022/01/03 11:25:14;;;;;;;16.70;3.30;;;;;;;12.62;66.52;100822.50;3599665;39;20047;-64
2022/01/03 11:27:41;;;;;;;18.50;3.83;;;;;;;12.66;66.32;100832.13;3600453;39;20047;-64
2022/01/03 11:30:11;;;;;;;16.45;3.88;;;;;;;12.62;66.18;100831.44;3593652;39;20054;-64
2022/01/03 11:32:42;;;;;;;13.98;3.17;;;;;;;12.69;65.88;100827.38;3599870;39;20116;-64
2022/01/03 11:35:10;;;;;;;15.48;3.22;;;;;;;12.45;66.26;100815.59;3602386;39;20055;-64
2022/01/03 11:37:40;;;;;;;13.98;3.35;;;;;;;12.55;66.43;100838.25;3596794;39;20311;-63
2022/01/03 11:40:10;;;;;;;15.85;3.88;;;;;;;12.46;66.51;100830.78;3599474;39;20052;-64
2022/01/03 11:42:37;;;;;;;20.30;3.47;;;;;;;12.33;66.77;100828.09;3603076;39;20123;-64